createdAt,value
2017-04-12T00:00:03.180Z,2.75
2017-04-12T00:01:02.337Z,2.40
2017-04-12T00:02:01.504Z,2.33
2017-04-12T00:03:00.628Z,2.40
2017-04-12T00:03:59.664Z,3.00
2017-04-12T00:04:58.820Z,2.92
2017-04-12T00:05:58.033Z,3.03
2017-04-12T00:06:57.134Z,2.85
2017-04-12T00:07:56.313Z,2.42
2017-04-12T00:08:56.160Z,3.20
2017-04-12T00:09:55.216Z,3.42
2017-04-12T00:10:54.200Z,3.12
2017-04-12T00:11:53.432Z,3.15
2017-04-12T00:12:53.276Z,2.93
2017-04-12T00:13:52.351Z,3.05
2017-04-12T00:14:51.516Z,3.65
2017-04-12T00:15:50.572Z,2.58
2017-04-12T00:16:49.764Z,3.23
2017-04-12T00:17:48.904Z,3.50
2017-04-12T00:18:48.053Z,3.32
2017-04-12T00:19:47.195Z,2.88
2017-04-12T00:20:47.033Z,2.88
2017-04-12T00:21:46.024Z,2.83
2017-04-12T00:22:45.140Z,2.95
2017-04-12T00:23:44.192Z,3.05
2017-04-12T00:24:43.296Z,2.95
2017-04-12T00:25:42.584Z,2.90
2017-04-12T00:26:41.627Z,3.03
2017-04-12T00:27:40.836Z,2.75
2017-04-12T00:28:39.897Z,2.80
2017-04-12T00:29:38.924Z,2.95
2017-04-12T00:30:38.106Z,2.28
2017-04-12T00:31:37.071Z,2.48
2017-04-12T00:32:36.856Z,3.03
2017-04-12T00:33:35.980Z,2.98
2017-04-12T00:34:35.141Z,2.87
2017-04-12T00:35:34.349Z,2.38
2017-04-12T00:36:33.509Z,2.15
2017-04-12T00:37:32.708Z,2.48
2017-04-12T00:38:31.857Z,2.97
2017-04-12T00:39:30.920Z,2.57
2017-04-12T00:40:30.728Z,3.78
2017-04-12T00:41:29.781Z,2.60
2017-04-12T00:42:28.937Z,2.40
2017-04-12T00:43:28.070Z,3.27
2017-04-12T00:44:27.093Z,2.77
2017-04-12T00:45:26.225Z,2.75
2017-04-12T00:46:25.303Z,3.52
2017-04-12T00:47:24.427Z,2.65
2017-04-12T00:48:23.503Z,2.85
2017-04-12T00:49:22.622Z,3.07
2017-04-12T00:50:22.532Z,2.80
2017-04-12T00:51:21.656Z,3.18
2017-04-12T00:52:20.884Z,2.67
2017-04-12T00:53:20.684Z,3.02
2017-04-12T00:54:20.544Z,3.28
2017-04-12T00:55:19.731Z,3.13
2017-04-12T00:56:18.772Z,2.38
2017-04-12T00:57:17.912Z,2.87
2017-04-12T00:58:17.746Z,2.92
2017-04-12T00:59:16.912Z,3.02
2017-04-12T01:00:16.017Z,3.67
2017-04-12T01:01:15.136Z,3.03
2017-04-12T01:02:14.212Z,3.07
2017-04-12T01:03:13.384Z,2.92
2017-04-12T01:04:12.624Z,3.08
2017-04-12T01:05:11.700Z,3.02
2017-04-12T01:06:10.815Z,3.28
2017-04-12T01:07:09.944Z,3.38
2017-04-12T01:08:09.116Z,3.23
2017-04-12T01:09:08.984Z,3.37
2017-04-12T01:10:08.105Z,3.38
2017-04-12T01:11:07.262Z,3.78
2017-04-12T01:12:07.030Z,3.73
2017-04-12T01:13:06.156Z,3.43
2017-04-12T01:14:05.252Z,3.20
2017-04-12T01:15:04.356Z,3.25
2017-04-12T01:16:03.454Z,2.90
2017-04-12T01:17:02.564Z,3.42
2017-04-12T01:18:01.635Z,2.83
2017-04-12T01:19:00.739Z,3.58
2017-04-12T01:19:59.913Z,3.53
2017-04-12T01:20:58.948Z,2.90
2017-04-12T01:21:58.079Z,2.87
2017-04-12T01:22:57.272Z,3.43
2017-04-12T01:23:56.312Z,4.07
2017-04-12T01:24:55.393Z,2.45
2017-04-12T01:25:54.620Z,2.93
2017-04-12T01:26:53.779Z,3.08
2017-04-12T01:27:52.898Z,2.82
2017-04-12T01:28:52.024Z,3.45
2017-04-12T01:29:51.934Z,3.53
2017-04-12T01:30:51.111Z,3.05
2017-04-12T01:31:50.299Z,2.55
2017-04-12T01:32:49.479Z,3.22
2017-04-12T01:33:48.567Z,2.97
2017-04-12T01:34:47.691Z,3.40
2017-04-12T01:35:46.794Z,2.82
2017-04-12T01:36:46.604Z,2.97
2017-04-12T01:37:45.709Z,2.90
2017-04-12T01:38:44.918Z,2.55
2017-04-12T01:39:44.055Z,3.73
2017-04-12T01:40:43.243Z,3.17
2017-04-12T01:41:42.428Z,3.28
2017-04-12T01:42:41.591Z,3.03
2017-04-12T01:43:41.407Z,2.83
2017-04-12T01:44:40.507Z,2.98
2017-04-12T01:45:39.629Z,2.95
2017-04-12T01:46:39.451Z,2.60
2017-04-12T01:47:38.567Z,2.37
2017-04-12T01:48:37.628Z,3.37
2017-04-12T01:49:36.738Z,3.17
2017-04-12T01:50:35.804Z,3.32
2017-04-12T01:51:34.944Z,2.68
2017-04-12T01:52:34.029Z,3.30
2017-04-12T01:53:33.203Z,3.57
2017-04-12T01:54:32.392Z,2.62
2017-04-12T01:55:31.475Z,2.95
2017-04-12T01:56:30.534Z,2.45
2017-04-12T01:57:29.599Z,2.60
2017-04-12T01:58:29.493Z,3.10
2017-04-12T01:59:29.316Z,2.75
2017-04-12T02:00:28.312Z,2.55
2017-04-12T02:01:27.468Z,3.10
2017-04-12T02:02:26.734Z,2.80
2017-04-12T02:03:26.628Z,2.53
2017-04-12T02:04:26.487Z,3.17
2017-04-12T02:05:25.540Z,3.18
2017-04-12T02:06:24.581Z,3.00
2017-04-12T02:07:24.412Z,2.60
2017-04-12T02:08:23.506Z,2.13
2017-04-12T02:09:22.635Z,2.78
2017-04-12T02:10:22.500Z,2.07
2017-04-12T02:11:21.615Z,2.73
2017-04-12T02:12:20.729Z,2.92
2017-04-12T02:13:19.881Z,2.67
2017-04-12T02:14:19.027Z,2.93
2017-04-12T02:15:18.168Z,2.72
2017-04-12T02:16:17.289Z,2.67
2017-04-12T02:17:16.424Z,2.88
2017-04-12T02:18:15.580Z,2.67
2017-04-12T02:19:15.419Z,2.50
2017-04-12T02:20:14.500Z,2.68
2017-04-12T02:21:13.601Z,2.77
2017-04-12T02:22:12.848Z,2.57
2017-04-12T02:23:11.928Z,3.17
2017-04-12T02:24:11.079Z,3.17
2017-04-12T02:25:10.280Z,2.97
2017-04-12T02:26:09.389Z,2.92
2017-04-12T02:27:08.612Z,2.45
2017-04-12T02:28:08.526Z,2.70
2017-04-12T02:29:07.692Z,3.08
2017-04-12T02:30:06.820Z,2.63
2017-04-12T02:31:05.972Z,2.97
2017-04-12T02:32:05.472Z,3.18
2017-04-12T02:33:04.624Z,2.92
2017-04-12T02:34:04.541Z,2.67
2017-04-12T02:35:03.644Z,2.50
2017-04-12T02:36:02.835Z,3.32
2017-04-12T02:37:01.935Z,2.77
2017-04-12T02:38:01.144Z,2.80
2017-04-12T02:39:01.109Z,2.67
2017-04-12T02:40:00.191Z,3.73
2017-04-12T02:40:59.339Z,2.80
2017-04-12T02:41:58.308Z,3.07
2017-04-12T02:42:57.399Z,3.00
2017-04-12T02:43:56.584Z,2.98
2017-04-12T02:44:55.748Z,3.38
2017-04-12T02:45:54.890Z,3.45
2017-04-12T02:46:54.711Z,2.85
2017-04-12T02:47:53.861Z,3.08
2017-04-12T02:48:52.988Z,2.82
2017-04-12T02:49:52.156Z,3.08
2017-04-12T02:50:51.231Z,3.72
2017-04-12T02:51:50.412Z,3.05
2017-04-12T02:52:49.588Z,2.98
2017-04-12T02:53:49.440Z,2.72
2017-04-12T02:54:48.511Z,2.70
2017-04-12T02:55:47.577Z,2.32
2017-04-12T02:56:46.732Z,3.47
2017-04-12T02:57:45.795Z,2.72
2017-04-12T02:58:44.996Z,3.13
2017-04-12T02:59:44.147Z,3.08
2017-04-12T03:00:43.328Z,2.82
2017-04-12T03:01:42.644Z,2.78
2017-04-12T03:02:41.775Z,2.40
2017-04-12T03:03:40.866Z,3.12
2017-04-12T03:04:39.992Z,2.87
2017-04-12T03:05:39.220Z,2.82
2017-04-12T03:06:38.370Z,3.07
2017-04-12T03:07:37.540Z,3.22
2017-04-12T03:08:36.651Z,3.13
2017-04-12T03:09:35.753Z,3.38
2017-04-12T03:10:35.650Z,2.68
2017-04-12T03:11:34.803Z,2.35
2017-04-12T03:12:34.173Z,3.78
2017-04-12T03:13:33.364Z,3.05
2017-04-12T03:14:32.505Z,2.52
2017-04-12T03:15:31.677Z,3.35
2017-04-12T03:16:30.807Z,3.63
2017-04-12T03:17:29.999Z,3.32
2017-04-12T03:18:29.856Z,2.63
2017-04-12T03:19:29.065Z,3.25
2017-04-12T03:20:28.234Z,3.18
2017-04-12T03:21:27.324Z,2.72
2017-04-12T03:22:26.443Z,2.68
2017-04-12T03:23:25.613Z,2.93
2017-04-12T03:24:25.568Z,3.23
2017-04-12T03:25:24.603Z,2.50
2017-04-12T03:26:23.677Z,2.18
2017-04-12T03:27:22.850Z,2.83
2017-04-12T03:28:22.007Z,2.97
2017-04-12T03:29:21.173Z,2.60
2017-04-12T03:30:20.294Z,2.70
2017-04-12T03:31:20.232Z,2.22
2017-04-12T03:32:19.440Z,2.88
2017-04-12T03:33:18.556Z,2.33
2017-04-12T03:34:17.664Z,2.30
2017-04-12T03:35:16.779Z,2.55
2017-04-12T03:36:15.904Z,2.77
2017-04-12T03:37:15.710Z,2.53
2017-04-12T03:38:14.788Z,2.50
2017-04-12T03:39:13.948Z,2.77
2017-04-12T03:40:13.116Z,2.78
2017-04-12T03:41:12.335Z,2.52
2017-04-12T03:42:11.602Z,2.45
2017-04-12T03:43:11.440Z,2.67
2017-04-12T03:44:10.586Z,2.87
2017-04-12T03:45:09.692Z,2.72
2017-04-12T03:46:08.841Z,2.78
2017-04-12T03:47:07.998Z,2.52
2017-04-12T03:48:07.802Z,2.73
2017-04-12T03:49:06.889Z,2.55
2017-04-12T03:50:06.117Z,2.63
2017-04-12T03:51:05.204Z,2.63
2017-04-12T03:52:04.342Z,3.00
2017-04-12T03:53:04.199Z,2.25
2017-04-12T03:54:03.362Z,2.60
2017-04-12T03:55:02.598Z,2.40
2017-04-12T03:56:02.571Z,2.22
2017-04-12T03:57:01.645Z,3.50
2017-04-12T03:58:00.863Z,3.58
2017-04-12T03:58:59.981Z,1.97
2017-04-12T03:59:59.074Z,2.22
2017-04-12T04:00:58.208Z,2.50
2017-04-12T04:01:57.272Z,2.35
2017-04-12T04:02:56.684Z,2.97
2017-04-12T04:03:55.801Z,2.77
2017-04-12T04:04:54.934Z,2.55
2017-04-12T04:05:54.108Z,2.88
2017-04-12T04:06:53.248Z,2.27
2017-04-12T04:07:52.332Z,2.67
2017-04-12T04:08:51.583Z,2.83
2017-04-12T04:09:50.825Z,2.50
2017-04-12T04:10:49.092Z,2.35
2017-04-12T04:11:48.276Z,2.95
2017-04-12T04:12:47.435Z,2.55
2017-04-12T04:13:45.753Z,3.20
2017-04-12T04:14:44.899Z,2.73
2017-04-12T04:15:43.992Z,3.13
2017-04-12T04:16:45.848Z,2.67
2017-04-12T04:17:44.980Z,2.70
2017-04-12T04:18:44.899Z,3.62
2017-04-12T04:19:43.869Z,3.03
2017-04-12T04:20:42.988Z,2.95
2017-04-12T04:21:42.114Z,2.72
2017-04-12T04:22:41.230Z,2.90
2017-04-12T04:23:40.272Z,3.05
2017-04-12T04:24:39.300Z,3.47
2017-04-12T04:25:38.396Z,3.43
2017-04-12T04:26:37.492Z,3.00
2017-04-12T04:27:37.052Z,2.72
2017-04-12T04:28:36.267Z,3.35
2017-04-12T04:29:35.468Z,3.50
2017-04-12T04:30:34.607Z,3.60
2017-04-12T04:31:33.808Z,2.88
2017-04-12T04:32:32.908Z,3.42
2017-04-12T04:33:31.979Z,3.52
2017-04-12T04:34:31.399Z,3.83
2017-04-12T04:35:30.516Z,4.27
2017-04-12T04:36:29.613Z,4.35
2017-04-12T04:37:28.031Z,4.28
2017-04-12T04:38:27.125Z,3.55
2017-04-12T04:39:25.507Z,3.27
2017-04-12T04:40:23.967Z,3.72
2017-04-12T04:41:23.092Z,3.27
2017-04-12T04:42:22.153Z,2.83
2017-04-12T04:43:21.372Z,4.03
2017-04-12T04:44:20.468Z,3.55
2017-04-12T04:45:19.910Z,3.55
2017-04-12T04:46:19.066Z,4.23
2017-04-12T04:47:18.075Z,3.13
2017-04-12T04:48:17.216Z,3.28
2017-04-12T04:49:16.259Z,4.15
2017-04-12T04:50:14.608Z,3.15
2017-04-12T04:51:13.805Z,3.10
2017-04-12T04:52:12.956Z,2.47
2017-04-12T04:53:12.140Z,3.12
2017-04-12T04:54:11.228Z,2.90
2017-04-12T04:55:10.429Z,3.25
2017-04-12T04:56:09.622Z,3.13
2017-04-12T04:57:08.790Z,3.35
2017-04-12T04:58:08.037Z,2.70
2017-04-12T04:59:07.892Z,3.18
2017-04-12T05:00:07.081Z,3.43
2017-04-12T05:01:06.186Z,3.25
2017-04-12T05:02:05.466Z,3.05
2017-04-12T05:03:05.376Z,3.58
2017-04-12T05:04:04.541Z,2.95
2017-04-12T05:05:04.418Z,3.02
2017-04-12T05:06:03.573Z,3.43
2017-04-12T05:07:02.724Z,2.75
2017-04-12T05:08:01.848Z,3.38
2017-04-12T05:09:01.019Z,3.13
2017-04-12T05:10:00.101Z,3.33
2017-04-12T05:10:59.256Z,2.97
2017-04-12T05:11:58.251Z,3.10
2017-04-12T05:12:57.304Z,3.07
2017-04-12T05:13:56.447Z,2.82
2017-04-12T05:14:55.623Z,3.62
2017-04-12T05:15:55.588Z,3.08
2017-04-12T05:16:54.720Z,3.32
2017-04-12T05:17:54.616Z,3.55
2017-04-12T05:18:53.766Z,3.13
2017-04-12T05:19:52.877Z,4.12
2017-04-12T05:20:52.639Z,3.10
2017-04-12T05:21:51.744Z,3.25
2017-04-12T05:22:51.677Z,3.50
2017-04-12T05:23:50.791Z,2.45
2017-04-12T05:24:49.966Z,2.95
2017-04-12T05:25:49.137Z,3.28
2017-04-12T05:26:48.299Z,3.27
2017-04-12T05:27:47.497Z,2.98
2017-04-12T05:28:46.616Z,3.50
2017-04-12T05:29:45.728Z,2.72
2017-04-12T05:30:44.764Z,3.33
2017-04-12T05:31:43.916Z,3.32
2017-04-12T05:32:42.972Z,3.25
2017-04-12T05:33:42.173Z,3.35
2017-04-12T05:34:41.228Z,3.40
2017-04-12T05:35:40.308Z,3.17
2017-04-12T05:36:39.431Z,2.95
2017-04-12T05:37:38.468Z,2.95
2017-04-12T05:38:37.672Z,3.88
2017-04-12T05:39:36.811Z,3.17
2017-04-12T05:40:36.732Z,3.53
2017-04-12T05:41:35.864Z,3.67
2017-04-12T05:42:35.150Z,2.98
2017-04-12T05:43:34.305Z,3.73
2017-04-12T05:44:33.400Z,3.43
2017-04-12T05:45:32.493Z,2.80
2017-04-12T05:46:31.646Z,2.93
2017-04-12T05:47:30.783Z,3.22
2017-04-12T05:48:29.888Z,3.17
2017-04-12T05:49:29.000Z,2.78
2017-04-12T05:50:28.019Z,2.88
2017-04-12T05:51:27.057Z,2.58
2017-04-12T05:52:26.145Z,2.97
2017-04-12T05:53:25.311Z,3.23
2017-04-12T05:54:24.413Z,3.10
2017-04-12T05:55:23.456Z,3.25
2017-04-12T05:56:22.548Z,3.28
2017-04-12T05:57:21.704Z,3.25
2017-04-12T05:58:20.800Z,3.18
2017-04-12T05:59:19.981Z,4.10
2017-04-12T06:00:19.300Z,3.42
2017-04-12T06:01:19.104Z,3.13
2017-04-12T06:02:18.193Z,3.33
2017-04-12T06:03:17.424Z,4.17
2017-04-12T06:04:16.577Z,3.58
2017-04-12T06:05:15.784Z,3.72
2017-04-12T06:06:14.962Z,3.35
2017-04-12T06:07:14.051Z,3.80
2017-04-12T06:08:13.180Z,3.32
2017-04-12T06:09:12.276Z,3.62
2017-04-12T06:10:11.327Z,4.93
2017-04-12T06:11:11.225Z,3.80
2017-04-12T06:12:10.304Z,2.98
2017-04-12T06:13:10.105Z,3.30
2017-04-12T06:14:09.183Z,3.32
2017-04-12T06:15:08.355Z,3.48
2017-04-12T06:16:08.184Z,3.43
2017-04-12T06:17:07.240Z,2.95
2017-04-12T06:18:06.340Z,2.97
2017-04-12T06:19:05.431Z,3.93
2017-04-12T06:20:04.869Z,3.85
2017-04-12T06:21:03.880Z,3.32
2017-04-12T06:22:03.028Z,2.85
2017-04-12T06:23:03.012Z,3.72
2017-04-12T06:24:02.049Z,3.28
2017-04-12T06:25:01.212Z,4.03
2017-04-12T06:26:00.282Z,4.47
2017-04-12T06:26:59.461Z,3.43
2017-04-12T06:27:58.624Z,3.25
2017-04-12T06:28:58.544Z,3.53
2017-04-12T06:29:57.600Z,3.88
2017-04-12T06:30:56.695Z,3.77
2017-04-12T06:31:55.819Z,3.85
2017-04-12T06:32:55.383Z,3.73
2017-04-12T06:33:54.564Z,4.63
2017-04-12T06:34:53.676Z,3.93
2017-04-12T06:35:53.472Z,4.12
2017-04-12T06:36:52.596Z,4.58
2017-04-12T06:37:51.657Z,6.22
2017-04-12T06:38:50.790Z,4.98
2017-04-12T06:39:49.836Z,3.90
2017-04-12T06:40:48.925Z,4.92
2017-04-12T06:41:48.036Z,4.57
2017-04-12T06:42:47.205Z,4.60
2017-04-12T06:43:46.374Z,5.38
2017-04-12T06:44:45.417Z,5.12
2017-04-12T06:45:44.567Z,4.65
2017-04-12T06:46:43.601Z,5.43
2017-04-12T06:47:42.803Z,4.37
2017-04-12T06:48:42.005Z,4.40
2017-04-12T06:49:41.204Z,5.42
2017-04-12T06:50:39.571Z,5.23
2017-04-12T06:51:38.740Z,4.80
2017-04-12T06:52:37.889Z,5.78
2017-04-12T06:53:36.996Z,4.50
2017-04-12T06:54:36.132Z,4.95
2017-04-12T06:55:35.332Z,4.55
2017-04-12T06:56:34.432Z,5.38
2017-04-12T06:57:33.676Z,4.43
2017-04-12T06:58:32.813Z,4.90
2017-04-12T06:59:31.213Z,3.97
2017-04-12T07:00:30.335Z,4.40
2017-04-12T07:01:29.472Z,4.35
2017-04-12T07:02:28.571Z,5.30
2017-04-12T07:03:27.732Z,5.18
2017-04-12T07:04:26.808Z,7.18
2017-04-12T07:05:25.868Z,6.12
2017-04-12T07:06:24.912Z,5.45
2017-04-12T07:07:23.956Z,4.95
2017-04-12T07:08:23.053Z,4.73
2017-04-12T07:09:22.151Z,4.52
2017-04-12T07:10:21.308Z,5.35
2017-04-12T07:11:20.440Z,4.40
2017-04-12T07:12:20.267Z,4.50
2017-04-12T07:13:19.336Z,4.62
2017-04-12T07:14:18.433Z,4.62
2017-04-12T07:15:17.580Z,4.83
2017-04-12T07:16:17.435Z,4.73
2017-04-12T07:17:16.628Z,5.15
2017-04-12T07:18:15.752Z,5.18
2017-04-12T07:19:14.823Z,5.95
2017-04-12T07:20:13.993Z,5.33
2017-04-12T07:21:13.844Z,6.08
2017-04-12T07:22:13.668Z,5.98
2017-04-12T07:23:12.792Z,6.25
2017-04-12T07:24:11.841Z,6.55
2017-04-12T07:25:17.711Z,5.25
2017-04-12T07:26:16.904Z,5.27
2017-04-12T07:27:16.190Z,4.53
2017-04-12T07:28:15.558Z,5.85
2017-04-12T07:29:14.703Z,9.08
2017-04-12T07:30:14.755Z,5.00
2017-04-12T07:31:13.804Z,4.92
2017-04-12T07:32:12.908Z,4.85
2017-04-12T07:33:12.037Z,4.95
2017-04-12T07:34:11.109Z,4.92
2017-04-12T07:35:10.225Z,6.37
2017-04-12T07:36:09.248Z,7.03
2017-04-12T07:37:08.273Z,6.37
2017-04-12T07:38:08.105Z,7.52
2017-04-12T07:39:07.181Z,6.55
2017-04-12T07:40:06.236Z,5.77
2017-04-12T07:41:05.621Z,5.62
2017-04-12T07:42:05.186Z,5.27
2017-04-12T07:43:04.297Z,5.25
2017-04-12T07:44:03.416Z,4.63
2017-04-12T07:45:02.516Z,5.07
2017-04-12T07:46:01.753Z,5.18
2017-04-12T07:47:00.911Z,5.88
2017-04-12T07:48:00.131Z,5.70
2017-04-12T07:48:59.326Z,5.50
2017-04-12T07:49:58.443Z,6.05
2017-04-12T07:50:58.288Z,5.03
2017-04-12T07:51:58.456Z,5.85
2017-04-12T07:52:57.524Z,5.78
2017-04-12T07:53:56.635Z,6.20
2017-04-12T07:54:55.703Z,5.13
2017-04-12T07:55:54.820Z,4.78
2017-04-12T07:56:53.956Z,4.58
2017-04-12T07:57:53.051Z,5.25
2017-04-12T07:58:52.137Z,5.83
2017-04-12T07:59:51.256Z,5.62
2017-04-12T08:00:50.321Z,5.53
2017-04-12T08:01:49.545Z,5.80
2017-04-12T08:02:48.556Z,4.95
2017-04-12T08:03:47.641Z,5.58
2017-04-12T08:04:46.831Z,5.30
2017-04-12T08:05:45.884Z,7.48
2017-04-12T08:06:45.045Z,5.72
2017-04-12T08:07:44.171Z,5.58
2017-04-12T08:08:44.045Z,5.60
2017-04-12T08:09:43.204Z,5.67
2017-04-12T08:10:42.277Z,5.23
2017-04-12T08:11:41.315Z,4.75
2017-04-12T08:12:40.484Z,5.62
2017-04-12T08:13:39.632Z,5.20
2017-04-12T08:14:38.728Z,5.42
2017-04-12T08:15:37.721Z,5.75
2017-04-12T08:16:36.747Z,4.93
2017-04-12T08:17:35.403Z,4.90
2017-04-12T08:18:34.662Z,6.05
2017-04-12T08:19:33.220Z,5.57
2017-04-12T08:20:32.366Z,5.52
2017-04-12T08:21:31.532Z,6.08
2017-04-12T08:22:30.640Z,5.43
2017-04-12T08:23:30.044Z,8.13
2017-04-12T08:24:29.080Z,5.72
2017-04-12T08:25:28.230Z,6.97
2017-04-12T08:26:26.560Z,7.40
2017-04-12T08:27:25.664Z,5.45
2017-04-12T08:28:24.755Z,6.05
2017-04-12T08:29:23.142Z,5.47
2017-04-12T08:30:22.408Z,5.58
2017-04-12T08:31:21.590Z,7.03
2017-04-12T08:32:19.914Z,5.12
2017-04-12T08:33:18.996Z,5.25
2017-04-12T08:34:18.288Z,6.22
2017-04-12T08:35:17.508Z,4.77
2017-04-12T08:36:16.643Z,6.87
2017-04-12T08:37:15.676Z,6.05
2017-04-12T08:38:14.806Z,5.87
2017-04-12T08:39:13.941Z,5.40
2017-04-12T08:40:13.017Z,6.00
2017-04-12T08:41:12.127Z,5.65
2017-04-12T08:42:11.312Z,6.47
2017-04-12T08:43:10.472Z,5.45
2017-04-12T08:44:09.601Z,5.63
2017-04-12T08:45:08.768Z,5.52
2017-04-12T08:46:07.834Z,6.37
2017-04-12T08:47:06.945Z,6.10
2017-04-12T08:48:06.012Z,6.53
2017-04-12T08:49:04.343Z,6.12
2017-04-12T08:50:03.584Z,5.67
2017-04-12T08:51:02.643Z,5.77
2017-04-12T08:52:01.815Z,6.03
2017-04-12T08:53:00.262Z,7.25
2017-04-12T08:53:59.369Z,6.85
2017-04-12T08:54:57.827Z,6.87
2017-04-12T08:55:56.780Z,6.47
2017-04-12T08:56:55.230Z,6.42
2017-04-12T08:57:55.114Z,7.13
2017-04-12T08:58:54.145Z,7.58
2017-04-12T08:59:52.491Z,7.92
2017-04-12T09:00:50.969Z,6.50
2017-04-12T09:01:49.308Z,5.95
2017-04-12T09:02:47.690Z,6.42
2017-04-12T09:03:45.991Z,5.93
2017-04-12T09:04:45.084Z,7.30
2017-04-12T09:05:44.084Z,6.57
2017-04-12T09:06:43.208Z,6.82
2017-04-12T09:07:42.316Z,6.82
2017-04-12T09:08:41.379Z,6.82
2017-04-12T09:09:40.448Z,7.07
2017-04-12T09:10:39.572Z,7.62
2017-04-12T09:11:37.832Z,6.25
2017-04-12T09:12:36.998Z,6.95
2017-04-12T09:13:36.036Z,8.00
2017-04-12T09:14:35.140Z,7.38
2017-04-12T09:15:34.200Z,7.32
2017-04-12T09:16:33.283Z,6.88
2017-04-12T09:17:32.735Z,7.87
2017-04-12T09:18:32.011Z,6.18
2017-04-12T09:19:30.396Z,6.65
2017-04-12T09:20:28.800Z,9.13
2017-04-12T09:21:27.923Z,6.88
2017-04-12T09:22:26.357Z,6.90
2017-04-12T09:23:24.676Z,7.98
2017-04-12T09:24:23.711Z,6.78
2017-04-12T09:25:22.865Z,6.40
2017-04-12T09:26:22.132Z,6.17
2017-04-12T09:27:21.216Z,6.67
2017-04-12T09:28:20.335Z,7.03
2017-04-12T09:29:19.416Z,8.73
2017-04-12T09:30:18.542Z,7.53
2017-04-12T09:31:17.660Z,6.75
2017-04-12T09:32:16.765Z,7.23
2017-04-12T09:33:15.887Z,7.53
2017-04-12T09:34:14.995Z,7.57
2017-04-12T09:35:14.092Z,6.83
2017-04-12T09:36:13.235Z,8.30
2017-04-12T09:37:12.255Z,6.38
2017-04-12T09:38:11.620Z,7.40
2017-04-12T09:39:10.765Z,7.37
2017-04-12T09:40:09.943Z,6.65
2017-04-12T09:41:09.165Z,8.42
2017-04-12T09:42:08.298Z,8.27
2017-04-12T09:43:07.424Z,7.95
2017-04-12T09:44:06.576Z,7.70
2017-04-12T09:45:05.700Z,7.65
2017-04-12T09:46:04.115Z,7.18
2017-04-12T09:47:03.321Z,7.00
2017-04-12T09:48:01.811Z,7.43
2017-04-12T09:49:00.920Z,6.58
2017-04-12T09:49:59.319Z,7.82
2017-04-12T09:50:58.343Z,6.57
2017-04-12T09:51:57.537Z,6.62
2017-04-12T09:52:56.025Z,7.35
2017-04-12T09:53:55.143Z,6.88
2017-04-12T09:54:53.560Z,7.23
2017-04-12T09:55:52.616Z,6.92
2017-04-12T09:56:50.909Z,7.52
2017-04-12T09:57:50.027Z,6.72
2017-04-12T09:58:48.408Z,5.85
2017-04-12T09:59:46.844Z,5.93
2017-04-12T10:00:46.029Z,6.87
2017-04-12T10:01:45.172Z,6.12
2017-04-12T10:02:44.333Z,6.85
2017-04-12T10:03:43.456Z,6.88
2017-04-12T10:04:42.690Z,6.87
2017-04-12T10:05:41.684Z,6.85
2017-04-12T10:06:40.904Z,6.43
2017-04-12T10:07:40.027Z,6.58
2017-04-12T10:08:39.167Z,6.00
2017-04-12T10:09:38.308Z,7.08
2017-04-12T10:10:37.352Z,6.65
2017-04-12T10:11:36.430Z,6.80
2017-04-12T10:12:35.528Z,6.25
2017-04-12T10:13:34.623Z,5.93
2017-04-12T10:14:33.688Z,6.42
2017-04-12T10:15:32.046Z,5.45
2017-04-12T10:16:31.024Z,6.60
2017-04-12T10:17:30.029Z,6.78
2017-04-12T10:18:29.080Z,6.13
2017-04-12T10:19:28.572Z,6.48
2017-04-12T10:20:27.767Z,5.92
2017-04-12T10:21:26.875Z,6.53
2017-04-12T10:22:25.932Z,6.68
2017-04-12T10:23:25.007Z,6.55
2017-04-12T10:24:24.128Z,7.35
2017-04-12T10:25:23.212Z,5.60
2017-04-12T10:26:21.568Z,5.68
2017-04-12T10:27:20.405Z,6.83
2017-04-12T10:28:19.464Z,6.15
2017-04-12T10:29:19.325Z,5.65
2017-04-12T10:30:18.533Z,5.23
2017-04-12T10:31:16.880Z,6.20
2017-04-12T10:32:15.991Z,5.38
2017-04-12T10:33:15.836Z,6.15
2017-04-12T10:34:14.990Z,5.30
2017-04-12T10:35:14.027Z,7.73
2017-04-12T10:36:12.425Z,5.93
2017-04-12T10:37:11.443Z,6.00
2017-04-12T10:38:09.781Z,5.32
2017-04-12T10:39:08.856Z,5.48
2017-04-12T10:40:07.970Z,5.32
2017-04-12T10:41:07.088Z,6.60
2017-04-12T10:42:06.224Z,5.05
2017-04-12T10:43:05.361Z,5.20
2017-04-12T10:44:04.464Z,5.33
2017-04-12T10:45:04.452Z,5.95
2017-04-12T10:46:03.620Z,6.50
2017-04-12T10:47:02.769Z,5.42
2017-04-12T10:48:01.768Z,4.45
2017-04-12T10:49:00.768Z,5.37
2017-04-12T10:49:59.767Z,6.60
2017-04-12T10:50:58.916Z,4.82
2017-04-12T10:51:58.015Z,4.88
2017-04-12T10:52:57.184Z,4.77
2017-04-12T10:53:56.415Z,5.40
2017-04-12T10:54:55.471Z,5.18
2017-04-12T10:55:54.544Z,5.22
2017-04-12T10:56:53.687Z,5.75
2017-04-12T10:57:52.791Z,4.17
2017-04-12T10:58:51.903Z,4.02
2017-04-12T10:59:51.055Z,5.27
2017-04-12T11:00:50.268Z,4.55
2017-04-12T11:01:48.592Z,6.85
2017-04-12T11:02:47.839Z,4.95
2017-04-12T11:03:46.943Z,4.75
2017-04-12T11:04:46.081Z,4.97
2017-04-12T11:05:45.149Z,4.08
2017-04-12T11:06:44.249Z,3.70
2017-04-12T11:07:42.619Z,4.08
2017-04-12T11:08:42.351Z,4.07
2017-04-12T11:09:41.404Z,3.85
2017-04-12T11:10:40.555Z,3.20
2017-04-12T11:11:39.039Z,3.83
2017-04-12T11:12:38.124Z,3.28
2017-04-12T11:13:37.244Z,4.37
2017-04-12T11:14:36.335Z,3.97
2017-04-12T11:15:35.468Z,4.30
2017-04-12T11:16:34.536Z,3.75
2017-04-12T11:17:34.636Z,3.78
2017-04-12T11:18:33.723Z,3.05
2017-04-12T11:19:33.263Z,2.75
2017-04-12T11:20:33.220Z,2.97
2017-04-12T11:21:32.723Z,2.47
2017-04-12T11:22:31.858Z,3.10
2017-04-12T11:23:30.344Z,3.70
2017-04-12T11:24:29.331Z,2.58
2017-04-12T11:25:28.400Z,3.30
2017-04-12T11:26:27.407Z,3.62
2017-04-12T11:27:26.399Z,3.00
2017-04-12T11:28:25.506Z,2.92
2017-04-12T11:29:24.482Z,3.47
2017-04-12T11:30:23.458Z,3.20
2017-04-12T11:31:21.672Z,2.95
2017-04-12T11:32:21.518Z,2.45
2017-04-12T11:33:21.331Z,2.43
2017-04-12T11:34:20.469Z,2.15
2017-04-12T11:35:19.466Z,2.37
2017-04-12T11:36:18.551Z,2.58
2017-04-12T11:37:17.676Z,2.53
2017-04-12T11:38:16.724Z,2.27
2017-04-12T11:39:15.807Z,2.78
2017-04-12T11:40:14.868Z,2.35
2017-04-12T11:41:14.703Z,2.45
2017-04-12T11:42:13.864Z,2.20
2017-04-12T11:43:12.244Z,2.77
2017-04-12T11:44:11.380Z,2.30
2017-04-12T11:45:09.812Z,2.38
2017-04-12T11:46:08.992Z,2.40
2017-04-12T11:47:08.108Z,2.87
2017-04-12T11:48:06.483Z,2.53
2017-04-12T11:49:06.257Z,2.60
2017-04-12T11:50:04.664Z,3.00
2017-04-12T11:51:03.702Z,2.50
2017-04-12T11:52:02.052Z,2.08
2017-04-12T11:53:01.172Z,2.17
2017-04-12T11:54:00.296Z,2.20
2017-04-12T11:54:59.284Z,1.77
2017-04-12T11:55:58.435Z,1.72
2017-04-12T11:56:57.596Z,1.67
2017-04-12T11:57:56.589Z,2.20
2017-04-12T11:58:54.900Z,1.80
2017-04-12T11:59:54.699Z,2.07
2017-04-12T12:00:53.854Z,1.77
2017-04-12T12:01:52.995Z,1.90
2017-04-12T12:02:52.164Z,1.57
2017-04-12T12:03:51.264Z,1.57
2017-04-12T12:04:50.400Z,1.78
2017-04-12T12:05:49.512Z,2.40
2017-04-12T12:06:48.519Z,1.80
2017-04-12T12:07:46.956Z,2.18
2017-04-12T12:08:46.099Z,1.97
2017-04-12T12:09:45.910Z,2.75
2017-04-12T12:10:44.907Z,2.12
2017-04-12T12:11:44.072Z,2.00
2017-04-12T12:12:43.283Z,2.02
2017-04-12T12:13:42.523Z,1.78
2017-04-12T12:14:40.824Z,1.68
2017-04-12T12:15:39.920Z,1.85
2017-04-12T12:16:39.069Z,1.55
2017-04-12T12:17:38.160Z,1.77
2017-04-12T12:18:37.132Z,1.78
2017-04-12T12:19:36.276Z,1.42
2017-04-12T12:20:34.676Z,2.10
2017-04-12T12:21:33.768Z,1.65
2017-04-12T12:22:32.052Z,2.20
2017-04-12T12:23:30.576Z,2.83
2017-04-12T12:24:29.631Z,1.73
2017-04-12T12:25:28.764Z,1.77
2017-04-12T12:26:28.560Z,2.20
2017-04-12T12:27:27.121Z,1.85
2017-04-12T12:28:26.107Z,1.52
2017-04-12T12:29:25.291Z,1.97
2017-04-12T12:30:24.435Z,1.63
2017-04-12T12:31:23.551Z,2.20
2017-04-12T12:32:22.709Z,1.80
2017-04-12T12:33:21.041Z,1.43
2017-04-12T12:34:20.155Z,3.63
2017-04-12T12:35:18.391Z,2.45
2017-04-12T12:36:17.440Z,1.72
2017-04-12T12:37:16.485Z,2.35
2017-04-12T12:38:15.587Z,2.37
2017-04-12T12:39:15.167Z,2.15
2017-04-12T12:40:14.304Z,2.58
2017-04-12T12:41:13.410Z,2.43
2017-04-12T12:42:12.755Z,2.02
2017-04-12T12:43:11.732Z,2.45
2017-04-12T12:44:10.848Z,2.17
2017-04-12T12:45:09.884Z,1.93
2017-04-12T12:46:08.964Z,2.40
2017-04-12T12:47:08.136Z,1.80
2017-04-12T12:48:07.189Z,2.05
2017-04-12T12:49:05.499Z,1.78
2017-04-12T12:50:04.706Z,2.50
2017-04-12T12:51:03.072Z,2.12
2017-04-12T12:52:02.052Z,2.15
2017-04-12T12:53:01.159Z,2.30
2017-04-12T12:54:00.968Z,2.50
2017-04-12T12:55:00.029Z,2.63
2017-04-12T12:55:58.396Z,2.02
2017-04-12T12:56:58.263Z,2.43
2017-04-12T12:57:57.339Z,2.65
2017-04-12T12:58:56.473Z,1.72
2017-04-12T12:59:55.577Z,2.08
2017-04-12T13:00:55.096Z,2.30
2017-04-12T13:01:54.193Z,3.07
2017-04-12T13:02:52.541Z,2.38
2017-04-12T13:03:50.840Z,1.95
2017-04-12T13:04:49.919Z,3.00
2017-04-12T13:05:48.992Z,2.40
2017-04-12T13:06:48.015Z,2.55